Time;durP1;ratioP1;P1;durP2;ratioP2;P2;SDS_P1;SDS_P2;PMS_P1;PMS_P2;Temp;Humidity;BMP_temperature;BMP_pressure;BME280_temperature;BME280_humidity;BME280_pressure;Samples;Min_cycle;Max_cycle;Signal;HPM_P1;HPM_P2
2024/01/24 00:00:20;;;;;;;5.43;3.97;;;10.60;77.00;;;;;;4942663;29;20027;-91
2024/01/24 00:02:48;;;;;;;3.33;1.92;;;10.60;76.50;;;;;;4939003;29;20043;-93
2024/01/24 00:05:13;;;;;;;8.45;2.88;;;10.70;76.30;;;;;;4934389;29;20047;-91
2024/01/24 00:07:39;;;;;;;3.00;2.80;;;10.70;76.80;;;;;;4931917;29;20027;-90
2024/01/24 00:10:06;;;;;;;4.78;2.47;;;10.70;76.80;;;;;;4946699;29;20023;-91
2024/01/24 00:12:31;;;;;;;4.10;3.78;;;10.80;77.30;;;;;;4977256;28;20028;-90
2024/01/24 00:14:57;;;;;;;5.22;3.05;;;10.80;77.20;;;;;;4948787;29;20046;-90
2024/01/24 00:17:23;;;;;;;5.85;2.60;;;10.90;77.10;;;;;;4940381;29;20027;-90
2024/01/24 00:19:48;;;;;;;8.38;3.53;;;11.00;77.40;;;;;;4949246;29;20506;-91
2024/01/24 00:22:14;;;;;;;4.25;3.75;;;11.00;76.90;;;;;;4949101;29;20080;-92
2024/01/24 00:24:40;;;;;;;5.05;2.85;;;11.00;77.50;;;;;;4937743;29;20080;-90
2024/01/24 00:27:06;;;;;;;3.97;3.58;;;10.90;77.90;;;;;;4933386;29;20043;-90
2024/01/24 00:29:31;;;;;;;9.85;2.83;;;11.00;76.80;;;;;;4930820;29;20034;-92
2024/01/24 00:31:57;;;;;;;4.07;3.22;;;11.00;77.50;;;;;;4935747;29;20023;-93
2024/01/24 00:34:23;;;;;;;12.05;2.63;;;11.00;77.30;;;;;;4948136;29;20028;-91
2024/01/24 00:36:51;;;;;;;5.45;2.15;;;11.00;77.10;;;;;;4949314;29;20028;-91
2024/01/24 00:39:17;;;;;;;4.45;3.38;;;11.00;76.30;;;;;;4946930;29;20039;-90
2024/01/24 00:41:43;;;;;;;4.40;2.85;;;11.00;76.10;;;;;;4928861;29;20028;-92
2024/01/24 00:44:09;;;;;;;4.95;3.53;;;11.00;76.70;;;;;;4930591;29;20491;-91
2024/01/24 00:46:35;;;;;;;4.82;2.88;;;10.90;76.10;;;;;;4939359;29;20034;-93
2024/01/24 00:49:02;;;;;;;3.88;2.30;;;11.00;76.30;;;;;;4948702;29;20035;-89
2024/01/24 00:51:28;;;;;;;5.18;4.18;;;11.00;76.80;;;;;;4949973;29;20031;-90
2024/01/24 00:53:54;;;;;;;3.53;3.17;;;11.00;76.60;;;;;;4943660;29;20028;-91
2024/01/24 00:56:20;;;;;;;3.50;3.00;;;10.90;76.70;;;;;;4946942;29;20028;-91
2024/01/24 00:58:46;;;;;;;4.93;3.63;;;10.90;76.70;;;;;;4945779;29;20032;-92
2024/01/24 01:01:12;;;;;;;4.22;1.80;;;11.00;76.40;;;;;;4932610;29;20047;-91
2024/01/24 01:03:38;;;;;;;3.88;3.58;;;11.00;76.80;;;;;;4930963;29;20033;-91
2024/01/24 01:06:05;;;;;;;5.15;3.10;;;11.00;77.10;;;;;;4937451;29;20026;-92
2024/01/24 01:08:31;;;;;;;1.90;1.70;;;11.00;77.30;;;;;;4949599;29;20037;-92
2024/01/24 01:11:01;;;;;;;4.43;2.75;;;10.90;77.80;;;;;;4942206;29;20093;-91
2024/01/24 01:13:26;;;;;;;3.47;2.55;;;10.90;78.00;;;;;;4962118;28;20024;-92
2024/01/24 01:15:52;;;;;;;3.15;1.10;;;10.90;78.40;;;;;;4946252;29;20391;-89
2024/01/24 01:18:18;;;;;;;4.70;3.25;;;10.90;78.40;;;;;;4945858;29;20027;-92
2024/01/24 01:20:43;;;;;;;4.15;3.53;;;10.80;78.70;;;;;;4966962;28;20028;-91
2024/01/24 01:23:09;;;;;;;5.40;3.03;;;10.80;78.60;;;;;;4937947;29;20023;-91
2024/01/24 01:25:34;;;;;;;2.40;2.20;;;10.90;79.10;;;;;;4947786;29;20043;-91
2024/01/24 01:28:00;;;;;;;4.03;3.20;;;10.90;78.40;;;;;;4933529;29;20033;-90
2024/01/24 01:30:26;;;;;;;3.58;3.28;;;10.80;79.30;;;;;;4933007;29;20024;-92
2024/01/24 01:32:51;;;;;;;3.50;2.50;;;10.80;79.50;;;;;;4974617;28;20028;-91
2024/01/24 01:35:17;;;;;;;4.88;2.45;;;10.80;79.60;;;;;;4929799;29;20028;-91
2024/01/24 01:37:43;;;;;;;7.28;3.38;;;10.80;80.40;;;;;;4928877;29;20043;-94
2024/01/24 01:40:09;;;;;;;4.63;2.88;;;10.80;80.60;;;;;;4928269;29;20096;-91
2024/01/24 01:42:35;;;;;;;5.57;2.05;;;10.80;80.70;;;;;;4928070;29;20084;-91
2024/01/24 01:45:03;;;;;;;5.40;2.63;;;10.80;81.30;;;;;;4941691;29;20051;-90
2024/01/24 01:47:29;;;;;;;;;;;10.80;81.80;;;;;;4947339;29;20518;-91
2024/01/24 01:49:54;;;;;;;5.03;2.58;;;10.80;81.40;;;;;;4933000;29;19931;-91
2024/01/24 01:52:22;;;;;;;4.53;2.97;;;10.80;82.00;;;;;;4944794;29;20035;-94
2024/01/24 01:54:49;;;;;;;4.68;3.05;;;10.80;81.20;;;;;;4945876;29;20105;-92
2024/01/24 01:57:15;;;;;;;3.80;2.22;;;10.80;81.50;;;;;;4944738;29;20035;-91
2024/01/24 01:59:41;;;;;;;4.28;1.85;;;10.80;81.60;;;;;;4929726;29;20032;-90
2024/01/24 02:02:08;;;;;;;2.63;2.33;;;10.90;81.00;;;;;;4934868;29;20046;-91
2024/01/24 02:04:33;;;;;;;5.78;3.03;;;10.90;81.20;;;;;;4946136;29;20055;-88
2024/01/24 02:07:00;;;;;;;4.10;2.03;;;10.90;80.80;;;;;;4931464;29;20032;-90
2024/01/24 02:09:26;;;;;;;3.47;2.35;;;10.90;80.60;;;;;;4945954;29;20036;-90
2024/01/24 02:11:52;;;;;;;3.83;3.35;;;10.80;80.00;;;;;;4940960;29;20033;-91
2024/01/24 02:14:18;;;;;;;4.57;2.35;;;10.80;80.20;;;;;;4927477;29;20030;-91
2024/01/24 02:16:43;;;;;;;4.18;3.03;;;10.80;80.30;;;;;;4940250;29;20119;-91
2024/01/24 02:19:10;;;;;;;6.40;2.30;;;10.80;80.60;;;;;;4932082;29;20084;-91
2024/01/24 02:21:37;;;;;;;3.00;2.25;;;10.80;80.20;;;;;;4941727;29;20095;-91
2024/01/24 02:24:03;;;;;;;4.05;3.42;;;10.90;80.20;;;;;;4939223;29;20035;-90
2024/01/24 02:26:29;;;;;;;4.50;3.17;;;10.90;80.30;;;;;;4931591;29;20054;-90
2024/01/24 02:28:55;;;;;;;3.25;1.90;;;10.80;80.10;;;;;;4946745;29;20153;-92
2024/01/24 02:31:20;;;;;;;3.55;3.33;;;10.90;80.60;;;;;;4932989;29;20038;-91
2024/01/24 02:33:46;;;;;;;3.90;2.85;;;10.90;80.30;;;;;;4929637;29;20055;-90
2024/01/24 02:36:15;;;;;;;2.65;1.92;;;10.90;80.70;;;;;;4927705;29;20028;-91
2024/01/24 02:38:41;;;;;;;5.88;2.55;;;11.00;80.30;;;;;;4926847;29;20116;-92
2024/01/24 02:41:08;;;;;;;2.45;1.52;;;10.90;80.80;;;;;;4932690;29;20027;-92
2024/01/24 02:43:34;;;;;;;2.42;2.17;;;11.00;80.30;;;;;;4945447;29;20059;-91
2024/01/24 02:46:00;;;;;;;3.47;2.35;;;11.00;80.80;;;;;;4944764;29;20031;-92
2024/01/24 02:48:26;;;;;;;4.32;2.70;;;11.00;81.20;;;;;;4945889;29;20051;-92
2024/01/24 02:50:52;;;;;;;4.45;2.45;;;11.00;81.40;;;;;;4937094;29;20024;-93
2024/01/24 02:53:18;;;;;;;3.95;2.17;;;11.10;81.70;;;;;;4943543;29;20085;-92
2024/01/24 02:55:44;;;;;;;4.47;3.22;;;11.10;81.00;;;;;;4946888;29;20039;-93
2024/01/24 02:58:10;;;;;;;4.50;3.33;;;11.10;81.00;;;;;;4946145;29;20027;-90
2024/01/24 03:00:36;;;;;;;3.78;1.85;;;11.10;82.30;;;;;;4953919;29;20024;-91
2024/01/24 03:03:02;;;;;;;4.70;2.63;;;11.10;82.10;;;;;;4947637;29;20024;-93
2024/01/24 03:05:28;;;;;;;7.13;2.63;;;11.00;82.00;;;;;;4958010;29;20024;-91
2024/01/24 03:07:54;;;;;;;4.20;2.60;;;11.10;82.30;;;;;;4958429;28;20040;-92
2024/01/24 03:10:22;;;;;;;3.97;3.10;;;11.10;81.90;;;;;;4949406;29;20016;-90
2024/01/24 03:12:49;;;;;;;3.92;2.75;;;11.10;82.60;;;;;;4940079;29;20020;-92
2024/01/24 03:15:15;;;;;;;3.38;2.63;;;11.10;82.90;;;;;;4949187;28;20079;-91
2024/01/24 03:17:42;;;;;;;3.15;2.92;;;11.10;83.20;;;;;;4956977;28;20038;-95
2024/01/24 03:20:10;;;;;;;5.55;2.72;;;11.10;82.90;;;;;;4943650;29;20037;-94
2024/01/24 03:22:36;;;;;;;4.93;2.78;;;11.10;82.80;;;;;;4950893;28;20032;-91
2024/01/24 03:25:02;;;;;;;3.78;2.85;;;11.20;83.00;;;;;;4958650;29;20020;-91
2024/01/24 03:27:28;;;;;;;3.65;2.78;;;11.10;83.50;;;;;;4950775;29;20103;-91
2024/01/24 03:29:55;;;;;;;3.20;2.83;;;11.10;83.20;;;;;;4945633;29;20030;-93
2024/01/24 03:32:20;;;;;;;4.30;1.75;;;11.10;83.60;;;;;;4931872;29;20032;-91
2024/01/24 03:34:57;;;;;;;3.70;0.93;;;11.20;82.90;;;;;;4938386;29;20391;-91
2024/01/24 03:37:23;;;;;;;3.75;2.47;;;11.30;82.70;;;;;;4944789;29;20043;-91
2024/01/24 03:39:50;;;;;;;4.15;3.33;;;11.20;83.00;;;;;;4937003;29;20513;-91
2024/01/24 03:42:15;;;;;;;4.28;2.55;;;11.20;83.70;;;;;;4968889;28;20035;-92
2024/01/24 03:44:41;;;;;;;4.10;2.60;;;11.20;83.20;;;;;;4946046;29;20570;-92
2024/01/24 03:47:07;;;;;;;4.50;1.73;;;11.30;83.10;;;;;;4947896;29;20066;-90
2024/01/24 03:49:32;;;;;;;5.32;3.28;;;11.30;83.90;;;;;;4950131;29;20031;-90
2024/01/24 03:51:58;;;;;;;5.07;2.88;;;11.30;84.30;;;;;;4936396;29;20024;-92
2024/01/24 03:54:24;;;;;;;4.47;3.35;;;11.40;84.10;;;;;;4930191;29;20507;-91
2024/01/24 03:56:50;;;;;;;6.13;3.15;;;11.40;84.50;;;;;;4929852;29;20028;-90
2024/01/24 03:59:16;;;;;;;3.97;3.58;;;11.50;83.80;;;;;;4929475;29;20064;-91
2024/01/24 04:01:42;;;;;;;5.43;2.80;;;11.50;84.90;;;;;;4928934;29;20044;-91
2024/01/24 04:04:08;;;;;;;4.25;3.15;;;11.50;84.70;;;;;;4930421;29;20028;-92
2024/01/24 04:06:35;;;;;;;5.72;2.85;;;11.50;85.00;;;;;;4929569;29;20047;-91
2024/01/24 04:09:03;;;;;;;6.00;2.17;;;11.50;85.40;;;;;;4931679;29;20040;-92
2024/01/24 04:11:29;;;;;;;2.67;2.47;;;11.50;85.70;;;;;;4944585;29;20047;-89
2024/01/24 04:13:54;;;;;;;5.30;3.33;;;11.50;86.20;;;;;;4935811;29;20023;-92
2024/01/24 04:16:20;;;;;;;1.42;0.80;;;11.50;87.00;;;;;;4937668;29;20369;-91
2024/01/24 04:18:46;;;;;;;3.78;1.05;;;11.60;87.10;;;;;;4930605;29;20435;-91
2024/01/24 04:21:12;;;;;;;4.38;4.07;;;11.60;87.70;;;;;;4928731;29;20075;-91
2024/01/24 04:23:38;;;;;;;4.32;4.03;;;11.60;87.80;;;;;;4961043;28;20111;-91
2024/01/24 04:26:04;;;;;;;3.45;2.97;;;11.60;88.20;;;;;;4935070;29;20115;-91
2024/01/24 04:28:33;;;;;;;3.50;3.20;;;11.60;88.70;;;;;;4928499;29;20376;-92
2024/01/24 04:30:59;;;;;;;2.97;2.08;;;11.70;88.60;;;;;;4929729;29;20020;-91
2024/01/24 04:33:25;;;;;;;4.07;2.17;;;11.70;88.60;;;;;;4938854;29;20050;-92
2024/01/24 04:35:51;;;;;;;4.88;4.05;;;11.80;88.60;;;;;;4941089;29;20095;-91
2024/01/24 04:38:17;;;;;;;4.35;2.47;;;11.80;89.30;;;;;;4944735;29;20379;-91
2024/01/24 04:40:43;;;;;;;3.10;2.83;;;11.80;89.50;;;;;;4959818;28;20032;-90
2024/01/24 04:43:08;;;;;;;3.75;2.17;;;11.90;89.50;;;;;;4929926;29;20028;-92
2024/01/24 04:45:34;;;;;;;2.95;2.63;;;11.80;89.70;;;;;;4943191;29;20103;-91
2024/01/24 04:48:01;;;;;;;5.03;2.42;;;11.80;90.20;;;;;;4950391;29;20040;-91
2024/01/24 04:50:27;;;;;;;3.78;3.47;;;11.90;90.70;;;;;;4947950;29;20059;-90
2024/01/24 04:52:53;;;;;;;4.60;2.05;;;11.90;90.70;;;;;;4948127;29;20027;-91
2024/01/24 04:55:18;;;;;;;3.92;2.40;;;11.90;91.20;;;;;;4950149;29;20403;-91
2024/01/24 04:57:44;;;;;;;7.25;3.67;;;12.00;90.80;;;;;;4950141;29;20032;-92
2024/01/24 05:00:11;;;;;;;5.30;3.30;;;12.00;90.60;;;;;;4931466;29;20091;-90
2024/01/24 05:02:37;;;;;;;4.30;3.90;;;12.00;91.30;;;;;;4942103;29;20031;-90
2024/01/24 05:05:06;;;;;;;4.72;3.40;;;12.00;91.90;;;;;;4938190;29;20080;-92
2024/01/24 05:07:34;;;;;;;3.00;1.92;;;12.10;91.60;;;;;;4931092;29;20036;-92
2024/01/24 05:10:00;;;;;;;3.53;3.22;;;12.10;92.40;;;;;;4930413;29;20032;-92
2024/01/24 05:12:26;;;;;;;3.72;3.50;;;12.10;92.60;;;;;;4938972;29;20032;-92
2024/01/24 05:14:52;;;;;;;3.60;3.30;;;12.20;92.80;;;;;;4928479;29;20032;-92
2024/01/24 05:17:18;;;;;;;4.00;3.47;;;12.10;92.70;;;;;;4929476;29;20076;-95
2024/01/24 05:19:44;;;;;;;5.07;3.15;;;12.20;93.20;;;;;;4937206;29;20036;-91
2024/01/24 05:22:10;;;;;;;4.35;2.92;;;12.30;93.20;;;;;;4927468;29;20107;-90
2024/01/24 05:24:39;;;;;;;4.15;2.85;;;12.30;93.30;;;;;;4929976;29;20036;-90
2024/01/24 05:27:10;;;;;;;4.72;3.00;;;12.30;93.30;;;;;;4928290;29;20028;-93
2024/01/24 05:29:35;;;;;;;3.10;2.53;;;12.40;92.80;;;;;;4929482;29;20398;-90
2024/01/24 05:32:01;;;;;;;3.45;2.45;;;12.50;92.70;;;;;;4930620;29;20024;-91
2024/01/24 05:34:28;;;;;;;5.18;2.50;;;12.60;92.30;;;;;;4928949;29;20064;-90
2024/01/24 05:36:54;;;;;;;3.63;3.33;;;12.50;92.40;;;;;;4929490;29;20083;-91
2024/01/24 05:39:20;;;;;;;3.40;2.90;;;12.50;92.80;;;;;;4930401;29;20028;-91
2024/01/24 05:41:49;;;;;;;2.40;2.20;;;12.50;92.60;;;;;;4928033;29;20068;-89
2024/01/24 05:44:15;;;;;;;5.15;3.20;;;12.50;92.70;;;;;;4929677;29;20039;-91
2024/01/24 05:46:41;;;;;;;3.42;3.15;;;12.50;92.90;;;;;;4928202;29;20028;-92
2024/01/24 05:49:10;;;;;;;2.80;2.28;;;12.50;92.90;;;;;;4928638;29;20052;-90
2024/01/24 05:51:36;;;;;;;3.00;2.80;;;12.50;93.60;;;;;;4927900;29;20032;-91
2024/01/24 05:54:04;;;;;;;3.28;3.03;;;12.50;93.60;;;;;;4928930;29;20028;-92
2024/01/24 05:56:33;;;;;;;2.95;2.55;;;12.50;93.80;;;;;;4930077;29;20025;-92
2024/01/24 05:59:00;;;;;;;2.65;2.28;;;12.50;94.00;;;;;;4924469;29;20090;-91
2024/01/24 06:01:27;;;;;;;4.70;2.22;;;12.40;94.20;;;;;;4935349;29;20043;-91
2024/01/24 06:03:58;;;;;;;3.53;3.22;;;12.40;94.70;;;;;;4930779;29;20042;-91
2024/01/24 06:06:30;;;;;;;4.13;2.03;;;12.50;95.40;;;;;;4933287;29;20130;-92
2024/01/24 06:08:56;;;;;;;3.38;2.00;;;12.40;96.10;;;;;;4953301;29;20040;-96
2024/01/24 06:11:22;;;;;;;4.70;3.03;;;12.40;96.50;;;;;;4934021;29;20055;-95
2024/01/24 06:13:48;;;;;;;2.90;2.35;;;12.30;97.70;;;;;;4939637;29;20030;-92
2024/01/24 06:16:15;;;;;;;3.38;3.03;;;12.30;99.60;;;;;;4937459;29;20040;-91
2024/01/24 06:18:41;;;;;;;2.42;2.10;;;12.20;99.90;;;;;;4934746;29;20028;-91
2024/01/24 06:21:09;;;;;;;4.25;3.47;;;12.00;99.90;;;;;;4945220;29;20091;-91
2024/01/24 06:23:35;;;;;;;6.43;2.35;;;11.90;99.90;;;;;;4931572;29;20811;-94
2024/01/24 06:26:02;;;;;;;3.67;3.47;;;11.70;99.90;;;;;;4927896;29;20087;-92
2024/01/24 06:28:27;;;;;;;3.55;3.22;;;11.60;99.90;;;;;;4927567;29;20020;-91
2024/01/24 06:30:53;;;;;;;1.60;1.15;;;11.60;99.90;;;;;;4927763;29;20379;-92
2024/01/24 06:33:21;;;;;;;3.55;3.25;;;11.50;99.90;;;;;;4933218;29;20035;-93
2024/01/24 06:35:48;;;;;;;5.13;3.97;;;11.30;99.90;;;;;;4940602;29;20024;-92
2024/01/24 06:38:14;;;;;;;5.07;2.17;;;11.30;99.90;;;;;;4929138;29;20032;-92
2024/01/24 06:40:40;;;;;;;7.00;3.08;;;11.20;99.90;;;;;;4930220;29;20024;-91
2024/01/24 06:43:06;;;;;;;3.42;2.28;;;11.20;99.90;;;;;;4943512;28;20051;-95
2024/01/24 06:45:32;;;;;;;4.28;2.67;;;11.20;99.90;;;;;;4953151;28;20027;-95
2024/01/24 06:47:58;;;;;;;3.67;2.90;;;11.10;99.90;;;;;;4948894;28;20032;-96
2024/01/24 06:50:24;;;;;;;4.07;3.25;;;11.10;99.90;;;;;;4948841;28;20017;-96
2024/01/24 06:52:50;;;;;;;4.35;3.28;;;11.10;99.90;;;;;;4948163;28;20062;-94
2024/01/24 06:55:17;;;;;;;6.70;3.03;;;11.10;99.90;;;;;;4945193;28;20036;-96
2024/01/24 06:57:44;;;;;;;3.67;3.38;;;11.10;99.90;;;;;;4949783;23;20062;-92
2024/01/24 07:00:10;;;;;;;4.70;2.15;;;11.10;99.90;;;;;;4927667;29;20039;-94
2024/01/24 07:02:44;;;;;;;3.10;2.40;;;11.10;99.90;;;;;;4947605;28;20457;-94
2024/01/24 07:05:10;;;;;;;5.05;2.28;;;11.20;99.90;;;;;;4934851;29;20455;-93
2024/01/24 07:07:37;;;;;;;3.45;3.13;;;11.30;99.90;;;;;;4934453;29;20039;-93
2024/01/24 07:10:03;;;;;;;3.33;2.67;;;11.30;99.90;;;;;;4931644;29;20031;-93
2024/01/24 07:12:30;;;;;;;2.75;2.05;;;11.40;99.90;;;;;;4931040;29;20035;-92
2024/01/24 07:15:03;;;;;;;3.08;2.00;;;11.40;99.90;;;;;;4937644;28;20031;-94
2024/01/24 07:17:29;;;;;;;2.13;1.92;;;11.40;99.90;;;;;;4946224;28;20557;-94
2024/01/24 07:19:54;;;;;;;3.65;3.00;;;11.50;99.90;;;;;;4931632;29;20050;-93
2024/01/24 07:22:20;;;;;;;5.72;1.95;;;11.50;99.90;;;;;;4938973;28;20043;-94
2024/01/24 07:24:46;;;;;;;2.40;2.15;;;11.60;99.90;;;;;;4938139;29;20032;-92
2024/01/24 07:27:11;;;;;;;2.45;2.28;;;11.60;99.90;;;;;;4936140;29;20207;-94
2024/01/24 07:29:43;;;;;;;3.70;3.15;;;11.70;99.90;;;;;;4936589;29;20023;-92
2024/01/24 07:32:08;;;;;;;3.38;2.25;;;11.70;99.90;;;;;;4934551;28;20038;-94
2024/01/24 07:34:37;;;;;;;3.28;2.83;;;11.70;99.90;;;;;;4937277;28;20023;-93
2024/01/24 07:37:03;;;;;;;3.42;3.15;;;11.80;99.90;;;;;;4950900;28;20040;-95
2024/01/24 07:39:29;;;;;;;3.03;2.83;;;11.80;99.90;;;;;;4935173;29;20114;-93
2024/01/24 07:42:04;;;;;;;3.58;3.33;;;11.80;99.90;;;;;;4934635;29;20058;-95
2024/01/24 07:44:29;;;;;;;3.63;3.40;;;11.90;99.90;;;;;;4935859;29;20494;-93
2024/01/24 07:46:55;;;;;;;2.95;2.70;;;12.00;99.90;;;;;;4940952;28;20059;-93
2024/01/24 07:49:21;;;;;;;4.38;3.33;;;12.00;99.90;;;;;;4944784;28;20023;-93
2024/01/24 07:51:47;;;;;;;3.30;2.90;;;12.00;99.90;;;;;;4945709;23;20064;-90
2024/01/24 07:54:13;;;;;;;2.00;1.88;;;12.00;99.90;;;;;;4946467;29;20039;-90
2024/01/24 07:56:40;;;;;;;2.28;2.17;;;12.10;99.90;;;;;;4942825;29;20028;-92
2024/01/24 07:59:06;;;;;;;3.30;3.08;;;12.00;99.90;;;;;;4949808;28;20321;-91
2024/01/24 08:01:32;;;;;;;1.70;1.58;;;12.00;99.90;;;;;;4944700;29;20023;-92
2024/01/24 08:04:03;;;;;;;3.40;1.73;;;12.10;99.90;;;;;;4937093;29;20051;-92
2024/01/24 08:06:28;;;;;;;2.33;2.22;;;12.10;99.90;;;;;;4936503;29;20054;-91
2024/01/24 08:08:54;;;;;;;3.42;3.08;;;12.00;99.90;;;;;;4929280;29;20023;-92
2024/01/24 08:11:21;;;;;;;3.00;2.05;;;12.00;99.90;;;;;;4945538;29;20031;-94
2024/01/24 08:13:47;;;;;;;1.88;1.60;;;12.00;99.90;;;;;;4927163;29;20020;-89
2024/01/24 08:16:13;;;;;;;2.13;1.58;;;12.10;99.90;;;;;;4927083;29;20047;-91
2024/01/24 08:18:38;;;;;;;3.17;2.92;;;12.10;99.90;;;;;;4931771;29;20063;-90
2024/01/24 08:21:07;;;;;;;2.47;2.28;;;12.00;99.90;;;;;;4945582;29;20030;-91
2024/01/24 08:23:33;;;;;;;2.58;2.47;;;12.00;99.90;;;;;;4935016;29;20116;-92
2024/01/24 08:25:59;;;;;;;4.40;3.53;;;12.00;99.90;;;;;;4925428;29;20061;-91
2024/01/24 08:28:24;;;;;;;3.10;2.90;;;11.90;99.90;;;;;;4923077;29;20051;-92
2024/01/24 08:30:50;;;;;;;2.53;2.30;;;11.90;99.90;;;;;;4926817;29;20035;-91
2024/01/24 08:33:15;;;;;;;5.70;2.35;;;11.90;99.90;;;;;;4927039;29;20020;-92
2024/01/24 08:35:41;;;;;;;4.15;3.78;;;11.80;99.90;;;;;;4928622;29;20083;-92
2024/01/24 08:38:07;;;;;;;2.30;2.10;;;11.80;99.90;;;;;;4942028;29;20703;-92
2024/01/24 08:40:33;;;;;;;2.95;2.85;;;11.80;99.90;;;;;;4930098;29;20028;-92
2024/01/24 08:42:58;;;;;;;2.30;1.75;;;11.60;99.90;;;;;;4935481;29;20034;-92
2024/01/24 08:45:24;;;;;;;2.70;2.50;;;11.60;99.90;;;;;;4938889;29;20038;-92
2024/01/24 08:47:50;;;;;;;19.40;5.05;;;11.50;99.90;;;;;;4927263;29;20115;-93
2024/01/24 08:50:16;;;;;;;2.30;2.10;;;11.50;99.90;;;;;;4927475;29;20103;-91
2024/01/24 08:52:42;;;;;;;2.17;1.98;;;11.50;99.90;;;;;;4940121;29;20075;-93
2024/01/24 08:55:08;;;;;;;3.33;3.03;;;11.60;99.90;;;;;;4946243;29;20095;-92
2024/01/24 08:57:34;;;;;;;4.63;3.38;;;11.60;99.90;;;;;;4938623;29;20444;-93
2024/01/24 08:59:59;;;;;;;2.30;2.03;;;11.70;99.90;;;;;;4928202;29;20032;-91
2024/01/24 09:02:26;;;;;;;3.30;2.53;;;11.70;99.90;;;;;;4927357;29;20071;-93
2024/01/24 09:04:52;;;;;;;2.95;2.67;;;11.70;99.90;;;;;;4928089;29;20080;-92
2024/01/24 09:07:22;;;;;;;3.78;3.47;;;11.60;99.90;;;;;;4926980;29;20024;-92
2024/01/24 09:09:50;;;;;;;2.28;2.08;;;11.60;99.90;;;;;;4928736;29;20543;-92
2024/01/24 09:12:16;;;;;;;2.53;2.33;;;11.60;99.90;;;;;;4929237;29;20028;-92
2024/01/24 09:14:44;;;;;;;3.25;3.10;;;11.60;99.90;;;;;;4928560;29;20048;-92
2024/01/24 09:17:17;;;;;;;3.25;2.28;;;11.70;99.90;;;;;;4926934;29;20056;-93
2024/01/24 09:19:44;;;;;;;2.90;2.65;;;11.80;99.90;;;;;;4928479;29;20028;-92
2024/01/24 09:22:10;;;;;;;1.75;1.33;;;11.80;99.90;;;;;;4930537;29;20041;-90
2024/01/24 09:24:36;;;;;;;3.80;3.60;;;11.80;99.90;;;;;;4930913;29;20024;-92
2024/01/24 09:27:03;;;;;;;2.35;2.15;;;11.90;99.90;;;;;;4930774;29;20028;-91
2024/01/24 09:29:29;;;;;;;3.22;3.03;;;11.90;99.90;;;;;;4940399;29;20028;-93
2024/01/24 09:31:54;;;;;;;3.13;2.78;;;11.90;99.90;;;;;;4941744;29;20020;-93
2024/01/24 09:34:20;;;;;;;2.58;2.38;;;11.80;99.90;;;;;;4942559;29;20032;-93
2024/01/24 09:36:47;;;;;;;2.47;2.28;;;11.90;99.90;;;;;;4942321;29;20020;-94
2024/01/24 09:39:12;;;;;;;3.08;2.83;;;11.90;99.90;;;;;;4942018;29;20028;-91
2024/01/24 09:41:42;;;;;;;3.05;2.60;;;11.90;99.90;;;;;;4941731;29;20079;-94
2024/01/24 09:44:08;;;;;;;3.10;2.03;;;11.90;99.90;;;;;;4941931;29;20036;-94
2024/01/24 09:46:37;;;;;;;2.95;2.70;;;11.90;99.90;;;;;;4941678;29;20039;-95
2024/01/24 09:49:06;;;;;;;2.03;1.92;;;11.80;99.90;;;;;;4941810;29;20040;-93
2024/01/24 09:51:33;;;;;;;4.28;4.03;;;11.80;99.90;;;;;;4937768;29;20036;-91
2024/01/24 09:54:08;;;;;;;2.75;2.50;;;11.90;99.90;;;;;;4940455;29;20035;-92
2024/01/24 09:56:38;;;;;;;2.15;2.05;;;11.90;99.90;;;;;;4929097;29;20491;-91
2024/01/24 09:59:05;;;;;;;2.72;2.63;;;12.00;99.90;;;;;;4931971;29;20031;-92
2024/01/24 10:01:33;;;;;;;2.50;2.30;;;12.00;99.90;;;;;;4924983;29;20044;-91
2024/01/24 10:04:00;;;;;;;3.15;2.95;;;12.10;99.90;;;;;;4925884;29;20116;-92
2024/01/24 10:06:29;;;;;;;2.75;2.65;;;12.10;99.90;;;;;;4924619;29;20039;-90
2024/01/24 10:08:56;;;;;;;4.38;4.10;;;12.20;99.90;;;;;;4923751;29;20028;-92
2024/01/24 10:11:23;;;;;;;4.72;4.35;;;12.10;99.90;;;;;;4925420;29;20021;-94
2024/01/24 10:13:49;;;;;;;3.10;2.85;;;12.10;99.90;;;;;;4923938;29;20119;-93
2024/01/24 10:16:15;;;;;;;2.30;2.13;;;12.10;99.90;;;;;;4924370;29;20119;-90
2024/01/24 10:18:42;;;;;;;3.95;3.13;;;12.00;99.90;;;;;;4926296;29;20058;-92
2024/01/24 10:21:07;;;;;;;2.67;2.58;;;11.90;99.90;;;;;;4924177;29;20039;-90
2024/01/24 10:23:33;;;;;;;2.63;2.42;;;11.70;99.90;;;;;;4925840;29;20055;-92
2024/01/24 10:26:00;;;;;;;2.88;2.67;;;11.60;99.90;;;;;;4934427;29;20132;-92
2024/01/24 10:28:26;;;;;;;2.88;2.67;;;11.60;99.90;;;;;;4925705;29;20031;-92
2024/01/24 10:30:52;;;;;;;3.35;3.08;;;11.60;99.90;;;;;;4923172;29;20495;-93
2024/01/24 10:33:18;;;;;;;4.75;3.08;;;11.70;99.90;;;;;;4924367;29;20078;-92
2024/01/24 10:35:43;;;;;;;2.22;2.13;;;11.80;99.90;;;;;;4923688;29;20032;-92
2024/01/24 10:38:12;;;;;;;3.15;2.95;;;11.90;99.90;;;;;;4924861;29;20127;-91
2024/01/24 10:40:41;;;;;;;1.85;1.75;;;12.10;99.90;;;;;;4922025;29;20060;-91
2024/01/24 10:43:14;;;;;;;2.15;2.05;;;12.30;99.90;;;;;;4923970;29;20032;-92
2024/01/24 10:45:48;;;;;;;0.55;0.47;;;12.60;99.90;;;;;;4924804;29;20451;-91
2024/01/24 10:48:15;;;;;;;;;;;12.70;99.90;;;;;;4926443;29;20087;-93
2024/01/24 10:50:42;;;;;;;2.08;1.98;;;12.80;99.90;;;;;;4924784;29;19914;-91
2024/01/24 10:53:12;;;;;;;1.75;1.65;;;12.80;99.90;;;;;;4926401;29;20044;-92
2024/01/24 10:55:40;;;;;;;3.67;3.38;;;12.80;99.90;;;;;;4909045;29;20040;-94
2024/01/24 10:58:10;;;;;;;1.25;1.15;;;12.70;99.90;;;;;;4912820;29;20062;-90
2024/01/24 11:00:37;;;;;;;2.60;2.40;;;12.80;99.90;;;;;;4924140;29;20062;-91
2024/01/24 11:03:03;;;;;;;1.75;1.65;;;12.70;99.90;;;;;;4923341;29;20079;-91
2024/01/24 11:05:51;;;;;;;1.40;1.30;;;12.70;99.90;;;;;;4915973;29;20040;-92
2024/01/24 11:08:26;;;;;;;3.03;0.65;;;12.70;99.90;;;;;;4933708;29;20493;-91
2024/01/24 11:10:55;;;;;;;2.78;2.55;;;12.70;99.90;;;;;;4944256;29;20028;-92
2024/01/24 11:13:23;;;;;;;2.17;1.80;;;12.70;99.90;;;;;;4934283;29;20055;-90
2024/01/24 11:15:49;;;;;;;2.67;2.58;;;12.70;99.90;;;;;;4924275;29;20024;-90
2024/01/24 11:18:19;;;;;;;1.67;1.58;;;12.80;99.90;;;;;;4923853;29;20032;-91
2024/01/24 11:21:00;;;;;;;1.10;1.00;;;12.80;99.90;;;;;;4925215;29;20427;-90
2024/01/24 11:23:45;;;;;;;2.20;2.10;;;12.80;99.90;;;;;;4924645;29;20694;-90
2024/01/24 11:26:32;;;;;;;2.50;2.30;;;12.90;99.90;;;;;;4925660;29;20039;-91
2024/01/24 11:29:32;;;;;;;1.67;1.48;;;12.80;99.90;;;;;;4929733;29;20622;-91
2024/01/24 11:31:58;;;;;;;3.58;2.05;;;12.80;99.90;;;;;;4906066;29;20033;-91
2024/01/24 11:34:27;;;;;;;2.05;1.95;;;12.90;99.90;;;;;;4929908;29;20559;-93
2024/01/24 11:36:53;;;;;;;1.95;1.80;;;12.90;99.90;;;;;;4924440;29;20064;-91
2024/01/24 11:39:39;;;;;;;2.25;2.05;;;12.90;99.90;;;;;;4924864;29;20028;-91
2024/01/24 11:42:26;;;;;;;1.65;1.52;;;12.90;99.90;;;;;;4922614;29;20036;-89
2024/01/24 11:44:52;;;;;;;1.92;1.83;;;12.90;99.90;;;;;;4923674;29;20527;-90
2024/01/24 11:47:20;;;;;;;2.28;2.10;;;13.00;99.90;;;;;;4922721;29;20032;-94
2024/01/24 11:49:50;;;;;;;1.85;1.70;;;13.00;99.90;;;;;;4904395;29;20048;-92
2024/01/24 11:52:20;;;;;;;2.03;1.90;;;13.00;99.90;;;;;;4918972;29;20178;-93
2024/01/24 11:54:53;;;;;;;2.53;1.83;;;13.00;99.90;;;;;;4928359;29;20034;-92
2024/01/24 11:57:19;;;;;;;2.88;1.73;;;13.00;99.90;;;;;;4923868;29;20509;-91
2024/01/24 11:59:44;;;;;;;1.92;1.60;;;13.10;99.90;;;;;;4921591;29;20032;-91
2024/01/24 12:02:10;;;;;;;2.85;2.65;;;13.10;99.90;;;;;;4921929;29;20092;-94
2024/01/24 12:04:36;;;;;;;2.25;1.33;;;13.20;99.90;;;;;;4923469;29;20177;-91
2024/01/24 12:07:02;;;;;;;3.20;1.85;;;13.20;99.90;;;;;;4921148;29;20028;-91
2024/01/24 12:09:28;;;;;;;2.20;1.80;;;13.20;99.90;;;;;;4925149;29;20023;-92
2024/01/24 12:11:54;;;;;;;2.80;2.03;;;13.30;99.90;;;;;;4939007;29;20027;-90
2024/01/24 12:14:21;;;;;;;3.95;3.00;;;13.30;99.90;;;;;;4946723;29;20530;-91
2024/01/24 12:16:56;;;;;;;1.70;1.55;;;13.30;99.90;;;;;;4947815;29;20106;-92
2024/01/24 12:19:22;;;;;;;3.28;3.00;;;13.30;99.90;;;;;;4945586;29;20126;-91
2024/01/24 12:21:47;;;;;;;2.08;0.40;;;13.30;99.90;;;;;;4934168;29;20407;-93
2024/01/24 12:24:15;;;;;;;3.15;1.25;;;13.40;99.90;;;;;;4916658;29;20028;-92
2024/01/24 12:26:40;;;;;;;2.33;1.98;;;13.40;99.20;;;;;;4909426;29;20028;-92
2024/01/24 12:29:08;;;;;;;2.67;2.47;;;13.40;98.70;;;;;;4909785;29;20033;-91
2024/01/24 12:31:38;;;;;;;;;;;13.40;99.80;;;;;;4911215;29;20028;-90
2024/01/24 12:34:07;;;;;;;2.72;1.67;;;13.40;99.40;;;;;;4925239;29;19915;-93
2024/01/24 12:36:32;;;;;;;3.83;2.33;;;13.40;98.00;;;;;;4924435;29;20099;-91
2024/01/24 12:38:59;;;;;;;2.47;1.95;;;13.50;96.90;;;;;;4910889;29;20492;-92
2024/01/24 12:41:25;;;;;;;3.53;1.95;;;13.50;97.40;;;;;;4909091;29;20029;-89
2024/01/24 12:43:50;;;;;;;3.97;1.80;;;13.50;96.40;;;;;;4935039;29;20028;-91
2024/01/24 12:46:16;;;;;;;3.28;1.42;;;13.50;97.50;;;;;;4946974;29;20083;-93